Kattegat — 5BKX3 — position and weather

sailwx.info

Track history (hours):
 
Tides and Currents Weather Stations Pressure Air Temp Water Temp Dewpoint Dewpoint Depression Visibility Wind Speed Wind Dir Waves Ship Positions

Kattegat

Last reported at 2017-Dec-16 03:24 UTC. Time now 2017-Dec-16 11:31 UTC.
Position N 36°04' W 005°09'.

Length 136 m; draft 5.2 m.

Type: Passenger vessel. MMSI: 209405000.

Date/timePositionNaut miles runAvg speedWind from/ knotsBaromVisibWave heightAir tempDewpointWater temp
2017-Dec-16 03:24N 36°04' W 005°09'819.5
2017-Dec-16 03:00N 36°01' W 005°17'1019.2
2017-Dec-16 02:30N 35°56' W 005°28'2 0.4
2017-Dec-15 21:42N 35°56' W 005°30'314.0
2017-Dec-15 21:31N 35°59' W 005°28'612.8
2017-Dec-15 21:01N 36°01' W 005°21'611.9
2017-Dec-15 20:31N 36°04' W 005°14'12 0.7
2017-Dec-15 02:31N 35°57' W 005°26'18 0.8
2017-Dec-14 03:50N 36°06' W 005°07'516.7
2017-Dec-14 03:30N 36°03' W 005°12'918.7
2017-Dec-14 03:00N 35°59' W 005°23'9 2.2
2017-Dec-13 22:55N 35°53' W 005°31'4 8.8
2017-Dec-13 22:30N 35°56' W 005°30'714.8
2017-Dec-13 22:00N 36°01' W 005°23'714.5
2017-Dec-13 21:30N 36°04' W 005°15'14 0.8
2017-Dec-13 04:30N 36°07' W 004°58'917.3
2017-Dec-13 03:59N 36°04' W 005°08'817.6
2017-Dec-13 03:31N 36°01' W 005°17'918.4
2017-Dec-13 03:01N 35°57' W 005°27'5 9.3
2017-Dec-13 02:30N 35°53' W 005°31'0 0.0
2017-Dec-13 01:08N 35°53' W 005°31'0 0.0
2017-Dec-13 00:48N 35°53' W 005°31'3 5.0
2017-Dec-13 00:07N 35°56' W 005°30'215.3
2017-Dec-13 00:00N 35°58' W 005°29'714.5
2017-Dec-12 23:30N 36°01' W 005°21'714.9
2017-Dec-12 23:00N 36°04' W 005°13'9110.0
2017-Dec-12 13:56N 36°43' W 003°31'0 0.0
2017-Dec-12 13:26N 36°43' W 003°31'0 0.0
2017-Dec-12 12:55N 36°43' W 003°31'0 0.0
2017-Dec-12 12:18N 36°43' W 003°31'25 8.8
2017-Dec-12 09:27N 36°31' W 003°58'916.1
2017-Dec-12 08:53N 36°27' W 004°09'616.2
2017-Dec-12 08:30N 36°25' W 004°16'816.4
2017-Dec-12 08:00N 36°22' W 004°25'816.4
2017-Dec-12 07:30N 36°18' W 004°34'5216.6
2017-Dec-12 04:21N 35°53' W 005°31'0 0.4
2017-Dec-12 03:23N 35°53' W 005°31'0 0.0
2017-Dec-12 03:00N 35°53' W 005°31'0 0.0
2017-Dec-12 02:30N 35°53' W 005°31'2 3.2
2017-Dec-12 02:00N 35°54' W 005°31'612.7
2017-Dec-12 01:30N 35°60' W 005°26'713.6
2017-Dec-12 01:01N 36°02' W 005°19'714.0
2017-Dec-12 00:31N 36°05' W 005°11'815.2
2017-Dec-12 00:00N 36°08' W 005°02'815.2
2017-Dec-11 23:30N 36°12' W 004°54'814.8
2017-Dec-11 23:00N 36°15' W 004°45'715.0
2017-Dec-11 22:30N 36°18' W 004°37'713.9
2017-Dec-11 22:00N 36°21' W 004°29'  
Track history (hours):
 
Tides and Currents Weather Stations Pressure Air Temp Water Temp Dewpoint Dewpoint Depression Visibility Wind Speed Wind Dir Waves Ship Positions

Kattegat

Last reported at 2017-Dec-16 03:24 UTC. Time now 2017-Dec-16 11:31 UTC.
Position N 36°04' W 005°09'.

Length 136 m; draft 5.2 m.

Type: Passenger vessel. MMSI: 209405000.

Date/timePositionNaut miles runAvg speedWind from/ knotsBaromVisibWave heightAir tempDewpointWater temp
2017-Dec-16 03:24N 36°04' W 005°09'819.5
2017-Dec-16 03:00N 36°01' W 005°17'1019.2
2017-Dec-16 02:30N 35°56' W 005°28'2 0.4
2017-Dec-15 21:42N 35°56' W 005°30'314.0
2017-Dec-15 21:31N 35°59' W 005°28'612.8
2017-Dec-15 21:01N 36°01' W 005°21'611.9
2017-Dec-15 20:31N 36°04' W 005°14'12 0.7
2017-Dec-15 02:31N 35°57' W 005°26'18 0.8
2017-Dec-14 03:50N 36°06' W 005°07'516.7
2017-Dec-14 03:30N 36°03' W 005°12'918.7
2017-Dec-14 03:00N 35°59' W 005°23'9 2.2
2017-Dec-13 22:55N 35°53' W 005°31'4 8.8
2017-Dec-13 22:30N 35°56' W 005°30'714.8
2017-Dec-13 22:00N 36°01' W 005°23'714.5
2017-Dec-13 21:30N 36°04' W 005°15'14 0.8
2017-Dec-13 04:30N 36°07' W 004°58'917.3
2017-Dec-13 03:59N 36°04' W 005°08'817.6
2017-Dec-13 03:31N 36°01' W 005°17'918.4
2017-Dec-13 03:01N 35°57' W 005°27'5 9.3
2017-Dec-13 02:30N 35°53' W 005°31'0 0.0
2017-Dec-13 01:08N 35°53' W 005°31'0 0.0
2017-Dec-13 00:48N 35°53' W 005°31'3 5.0
2017-Dec-13 00:07N 35°56' W 005°30'215.3
2017-Dec-13 00:00N 35°58' W 005°29'714.5
2017-Dec-12 23:30N 36°01' W 005°21'714.9
2017-Dec-12 23:00N 36°04' W 005°13'9110.0
2017-Dec-12 13:56N 36°43' W 003°31'0 0.0
2017-Dec-12 13:26N 36°43' W 003°31'0 0.0
2017-Dec-12 12:55N 36°43' W 003°31'0 0.0
2017-Dec-12 12:18N 36°43' W 003°31'25 8.8
2017-Dec-12 09:27N 36°31' W 003°58'916.1
2017-Dec-12 08:53N 36°27' W 004°09'616.2
2017-Dec-12 08:30N 36°25' W 004°16'816.4
2017-Dec-12 08:00N 36°22' W 004°25'816.4
2017-Dec-12 07:30N 36°18' W 004°34'5216.6
2017-Dec-12 04:21N 35°53' W 005°31'0 0.4
2017-Dec-12 03:23N 35°53' W 005°31'0 0.0
2017-Dec-12 03:00N 35°53' W 005°31'0 0.0
2017-Dec-12 02:30N 35°53' W 005°31'2 3.2
2017-Dec-12 02:00N 35°54' W 005°31'612.7
2017-Dec-12 01:30N 35°60' W 005°26'713.6
2017-Dec-12 01:01N 36°02' W 005°19'714.0
2017-Dec-12 00:31N 36°05' W 005°11'815.2
2017-Dec-12 00:00N 36°08' W 005°02'815.2
2017-Dec-11 23:30N 36°12' W 004°54'814.8
2017-Dec-11 23:00N 36°15' W 004°45'715.0
2017-Dec-11 22:30N 36°18' W 004°37'713.9
2017-Dec-11 22:00N 36°21' W 004°29'  

Dump ship's entire track history